createdAt,value
2023-04-13T00:00:28.933Z,0.00
2023-04-13T00:01:28.949Z,0.00
2023-04-13T00:02:29.034Z,0.00
2023-04-13T00:03:29.054Z,0.00
2023-04-13T00:04:28.985Z,0.00
2023-04-13T00:05:29.024Z,0.00
2023-04-13T00:06:29.049Z,0.00
2023-04-13T00:07:29.020Z,0.00
2023-04-13T00:08:29.031Z,0.00
2023-04-13T00:09:29.043Z,0.00
2023-04-13T00:10:29.057Z,0.00
2023-04-13T00:11:29.068Z,0.00
2023-04-13T00:12:29.081Z,0.00
2023-04-13T00:13:29.094Z,0.00
2023-04-13T00:14:29.109Z,0.00
2023-04-13T00:15:29.117Z,0.00
2023-04-13T00:16:29.180Z,0.00
2023-04-13T00:17:29.154Z,0.00
2023-04-13T00:18:29.156Z,0.00
2023-04-13T00:19:29.170Z,0.00
2023-04-13T00:20:29.183Z,0.00
2023-04-13T00:21:29.198Z,0.00
2023-04-13T00:22:29.219Z,0.00
2023-04-13T00:23:29.217Z,0.00
2023-04-13T00:24:29.262Z,0.00
2023-04-13T00:25:29.258Z,0.00
2023-04-13T00:26:29.266Z,0.00
2023-04-13T00:27:29.267Z,0.00
2023-04-13T00:28:29.281Z,0.00
2023-04-13T00:29:29.293Z,0.00
2023-04-13T00:30:29.305Z,0.00
2023-04-13T00:31:29.402Z,0.00
2023-04-13T00:32:29.337Z,0.00
2023-04-13T00:33:29.344Z,0.00
2023-04-13T00:34:29.354Z,0.00
2023-04-13T00:35:29.375Z,0.00
2023-04-13T00:36:29.391Z,0.00
2023-04-13T00:37:29.398Z,0.00
2023-04-13T00:38:29.405Z,0.00
2023-04-13T00:39:29.419Z,0.00
2023-04-13T00:40:29.447Z,0.00
2023-04-13T00:41:29.460Z,0.00
2023-04-13T00:42:29.454Z,0.00
2023-04-13T00:43:29.467Z,0.00
2023-04-13T00:44:29.481Z,0.00
2023-04-13T00:45:29.494Z,0.00
2023-04-13T00:46:29.582Z,0.00
2023-04-13T00:47:29.538Z,0.00
2023-04-13T00:48:29.527Z,0.00
2023-04-13T00:49:29.539Z,0.00
2023-04-13T00:50:29.552Z,0.00
2023-04-13T00:51:29.570Z,0.00
2023-04-13T00:52:29.581Z,0.00
2023-04-13T00:53:29.596Z,0.00
2023-04-13T00:54:29.600Z,0.00
2023-04-13T00:55:29.618Z,0.00
2023-04-13T00:56:29.627Z,0.00
2023-04-13T00:57:29.637Z,0.00
2023-04-13T00:58:29.654Z,0.00
2023-04-13T00:59:29.662Z,0.00
2023-04-13T01:00:29.686Z,0.00
2023-04-13T01:01:29.712Z,0.00
2023-04-13T01:02:29.803Z,0.00
2023-04-13T01:03:29.822Z,0.00
2023-04-13T01:04:29.814Z,0.00
2023-04-13T01:05:29.732Z,0.00
2023-04-13T01:06:29.741Z,0.00
2023-04-13T01:07:29.754Z,0.00
2023-04-13T01:08:29.789Z,0.00
2023-04-13T01:09:29.779Z,0.00
2023-04-13T01:10:29.814Z,0.00
2023-04-13T01:11:29.811Z,0.00
2023-04-13T01:12:29.812Z,0.00
2023-04-13T01:13:29.825Z,0.00
2023-04-13T01:14:29.835Z,0.00
2023-04-13T01:15:29.862Z,0.00
2023-04-13T01:16:29.930Z,0.00
2023-04-13T01:17:29.939Z,0.00
2023-04-13T01:18:29.886Z,0.00
2023-04-13T01:19:29.896Z,0.00
2023-04-13T01:20:29.909Z,0.00
2023-04-13T01:21:29.933Z,0.00
2023-04-13T01:22:29.938Z,0.00
2023-04-13T01:23:29.941Z,0.00
2023-04-13T01:24:29.954Z,0.00
2023-04-13T01:25:29.965Z,0.00
2023-04-13T01:26:29.980Z,0.00
2023-04-13T01:27:29.990Z,0.00
2023-04-13T01:28:30.027Z,0.00
2023-04-13T01:29:30.024Z,0.00
2023-04-13T01:30:30.032Z,0.00
2023-04-13T01:31:30.131Z,0.00
2023-04-13T01:32:30.077Z,0.00
2023-04-13T01:33:30.061Z,0.00
2023-04-13T01:34:30.073Z,0.00
2023-04-13T01:35:30.085Z,0.00
2023-04-13T01:36:30.100Z,0.00
2023-04-13T01:37:30.115Z,0.00
2023-04-13T01:38:30.125Z,0.00
2023-04-13T01:39:30.134Z,0.00
2023-04-13T01:40:30.145Z,0.00
2023-04-13T01:41:30.157Z,0.00
2023-04-13T01:42:30.177Z,0.00
2023-04-13T01:43:30.184Z,0.00
2023-04-13T01:44:30.195Z,0.00
2023-04-13T01:45:30.204Z,0.00
2023-04-13T01:46:30.285Z,0.00
2023-04-13T01:47:30.247Z,0.00
2023-04-13T01:48:30.251Z,0.00
2023-04-13T01:49:30.254Z,0.00
2023-04-13T01:50:30.267Z,0.00
2023-04-13T01:51:30.286Z,0.00
2023-04-13T01:52:30.295Z,0.00
2023-04-13T01:53:30.305Z,0.00
2023-04-13T01:54:30.316Z,0.00
2023-04-13T01:55:30.334Z,0.00
2023-04-13T01:56:30.341Z,0.00
2023-04-13T01:57:30.354Z,0.00
2023-04-13T01:58:30.368Z,0.00
2023-04-13T01:59:30.380Z,0.00
2023-04-13T02:00:30.435Z,0.00
2023-04-13T02:01:30.403Z,0.00
2023-04-13T02:02:30.558Z,0.00
2023-04-13T02:03:30.491Z,0.00
2023-04-13T02:04:30.435Z,0.00
2023-04-13T02:05:30.448Z,0.00
2023-04-13T02:06:30.463Z,0.00
2023-04-13T02:07:30.472Z,0.00
2023-04-13T02:08:31.022Z,0.00
2023-04-13T02:09:30.495Z,0.00
2023-04-13T02:10:30.508Z,0.00
2023-04-13T02:11:30.521Z,0.00
2023-04-13T02:12:30.533Z,0.00
2023-04-13T02:13:30.542Z,0.00
2023-04-13T02:14:30.560Z,0.00
2023-04-13T02:15:30.568Z,0.00
2023-04-13T02:16:30.648Z,0.00
2023-04-13T02:17:30.609Z,0.00
2023-04-13T02:18:30.606Z,0.00
2023-04-13T02:19:30.626Z,0.00
2023-04-13T02:20:30.645Z,0.00
2023-04-13T02:21:30.640Z,0.00
2023-04-13T02:22:30.650Z,0.00
2023-04-13T02:23:30.663Z,0.00
2023-04-13T02:24:30.676Z,0.00
2023-04-13T02:25:30.686Z,0.00
2023-04-13T02:26:30.721Z,0.00
2023-04-13T02:27:30.717Z,0.00
2023-04-13T02:28:30.733Z,0.00
2023-04-13T02:29:30.744Z,0.00
2023-04-13T02:30:30.746Z,0.00
2023-04-13T02:31:30.775Z,0.00
2023-04-13T02:32:30.800Z,0.00
2023-04-13T02:33:30.795Z,0.00
2023-04-13T02:34:30.799Z,0.00
2023-04-13T02:35:30.808Z,0.00
2023-04-13T02:36:30.829Z,0.00
2023-04-13T02:37:30.834Z,0.00
2023-04-13T02:38:30.853Z,0.00
2023-04-13T02:39:30.891Z,0.00
2023-04-13T02:40:30.872Z,0.00
2023-04-13T02:41:30.879Z,0.00
2023-04-13T02:42:30.905Z,0.00
2023-04-13T02:43:30.925Z,0.00
2023-04-13T02:44:30.916Z,0.00
2023-04-13T02:45:30.971Z,0.00
2023-04-13T02:46:32.797Z,0.00
2023-04-13T02:47:31.047Z,0.00
2023-04-13T02:48:31.071Z,0.00
2023-04-13T02:49:30.975Z,0.00
2023-04-13T02:50:31.008Z,0.00
2023-04-13T02:51:31.019Z,0.00
2023-04-13T02:52:31.059Z,0.00
2023-04-13T02:53:31.094Z,0.00
2023-04-13T02:54:31.048Z,0.00
2023-04-13T02:55:31.102Z,0.00
2023-04-13T02:56:31.125Z,0.00
2023-04-13T02:57:31.089Z,0.00
2023-04-13T02:58:31.077Z,0.00
2023-04-13T02:59:31.130Z,0.00
2023-04-13T03:00:31.103Z,0.00
2023-04-13T03:01:31.133Z,0.00
2023-04-13T03:02:31.177Z,0.00
2023-04-13T03:03:31.249Z,0.00
2023-04-13T03:04:31.205Z,0.00
2023-04-13T03:05:31.161Z,0.00
2023-04-13T03:06:31.206Z,0.00
2023-04-13T03:07:31.185Z,0.00
2023-04-13T03:08:31.196Z,0.00
2023-04-13T03:09:31.218Z,0.00
2023-04-13T03:10:31.241Z,0.00
2023-04-13T03:11:31.228Z,0.00
2023-04-13T03:12:31.244Z,0.00
2023-04-13T03:13:31.261Z,0.00
2023-04-13T03:14:31.268Z,0.00
2023-04-13T03:15:31.281Z,0.00
2023-04-13T03:16:31.315Z,0.00
2023-04-13T03:17:31.309Z,0.00
2023-04-13T03:18:31.314Z,0.00
2023-04-13T03:19:31.334Z,0.00
2023-04-13T03:20:31.354Z,0.00
2023-04-13T03:21:31.346Z,0.00
2023-04-13T03:22:31.358Z,0.00
2023-04-13T03:23:31.378Z,0.00
2023-04-13T03:24:31.407Z,0.00
2023-04-13T03:25:33.615Z,0.00
2023-04-13T03:26:31.414Z,0.00
2023-04-13T03:27:31.420Z,0.00
2023-04-13T03:28:31.430Z,0.00
2023-04-13T03:29:31.444Z,0.00
2023-04-13T03:30:31.457Z,0.00
2023-04-13T03:31:31.500Z,0.00
2023-04-13T03:32:31.540Z,0.00
2023-04-13T03:33:31.492Z,0.00
2023-04-13T03:34:31.504Z,0.00
2023-04-13T03:35:31.516Z,0.00
2023-04-13T03:36:31.535Z,0.00
2023-04-13T03:37:31.536Z,0.00
2023-04-13T03:38:31.548Z,0.00
2023-04-13T03:39:31.576Z,0.00
2023-04-13T03:40:31.570Z,0.00
2023-04-13T03:41:31.591Z,0.00
2023-04-13T03:42:31.593Z,0.00
2023-04-13T03:43:31.606Z,0.00
2023-04-13T03:44:31.615Z,0.00
2023-04-13T03:45:31.627Z,0.00
2023-04-13T03:46:31.676Z,4.00
2023-04-13T03:47:31.721Z,4.00
2023-04-13T03:48:31.663Z,0.00
2023-04-13T03:49:31.692Z,4.00
2023-04-13T03:50:31.687Z,4.00
2023-04-13T03:51:31.706Z,4.00
2023-04-13T03:52:31.717Z,4.00
2023-04-13T03:53:31.718Z,8.00
2023-04-13T03:54:31.784Z,8.00
2023-04-13T03:55:31.746Z,8.00
2023-04-13T03:56:31.758Z,12.00
2023-04-13T03:57:31.768Z,16.00
2023-04-13T03:58:31.776Z,16.00
2023-04-13T03:59:31.783Z,20.00
2023-04-13T04:00:31.798Z,20.00
2023-04-13T04:01:31.813Z,28.00
2023-04-13T04:02:32.028Z,28.00
2023-04-13T04:03:32.036Z,32.00
2023-04-13T04:04:31.859Z,36.00
2023-04-13T04:05:31.863Z,40.00
2023-04-13T04:06:31.874Z,48.00
2023-04-13T04:07:31.877Z,56.00
2023-04-13T04:08:31.886Z,64.00
2023-04-13T04:09:31.900Z,76.00
2023-04-13T04:10:31.913Z,92.00
2023-04-13T04:11:31.928Z,100.00
2023-04-13T04:12:31.941Z,116.00
2023-04-13T04:13:31.947Z,132.00
2023-04-13T04:14:31.961Z,152.00
2023-04-13T04:15:31.975Z,168.00
2023-04-13T04:16:32.005Z,184.00
2023-04-13T04:17:32.014Z,204.00
2023-04-13T04:18:32.014Z,220.00
2023-04-13T04:19:32.014Z,240.00
2023-04-13T04:20:32.064Z,264.00
2023-04-13T04:21:32.036Z,292.00
2023-04-13T04:22:32.054Z,316.00
2023-04-13T04:23:32.062Z,336.00
2023-04-13T04:24:32.074Z,356.00
2023-04-13T04:25:32.081Z,372.00
2023-04-13T04:26:32.095Z,392.00
2023-04-13T04:27:32.110Z,412.00
2023-04-13T04:28:32.114Z,432.00
2023-04-13T04:29:32.127Z,448.00
2023-04-13T04:30:32.140Z,464.00
2023-04-13T04:31:32.582Z,476.00
2023-04-13T04:32:32.178Z,488.00
2023-04-13T04:33:32.172Z,500.00
2023-04-13T04:34:32.194Z,512.00
2023-04-13T04:35:32.202Z,536.00
2023-04-13T04:36:32.215Z,572.00
2023-04-13T04:37:32.218Z,632.00
2023-04-13T04:38:32.235Z,708.00
2023-04-13T04:39:32.243Z,796.00
2023-04-13T04:40:32.259Z,884.00
2023-04-13T04:41:32.267Z,960.00
2023-04-13T04:42:32.276Z,1020.00
2023-04-13T04:43:32.293Z,1060.00
2023-04-13T04:44:32.297Z,1076.00
2023-04-13T04:45:32.365Z,1072.00
2023-04-13T04:46:32.321Z,1044.00
2023-04-13T04:47:32.353Z,1008.00
2023-04-13T04:48:32.341Z,976.00
2023-04-13T04:49:32.363Z,960.00
2023-04-13T04:50:32.368Z,940.00
2023-04-13T04:51:32.380Z,936.00
2023-04-13T04:52:32.394Z,928.00
2023-04-13T04:53:32.410Z,924.00
2023-04-13T04:54:32.414Z,928.00
2023-04-13T04:55:32.436Z,928.00
2023-04-13T04:56:32.436Z,932.00
2023-04-13T04:57:32.447Z,944.00
2023-04-13T04:58:32.461Z,968.00
2023-04-13T04:59:32.480Z,1012.00
2023-04-13T05:00:32.482Z,1068.00
2023-04-13T05:01:32.553Z,1152.00
2023-04-13T05:02:32.628Z,1260.00
2023-04-13T05:03:32.559Z,1376.00
2023-04-13T05:04:32.528Z,1504.00
2023-04-13T05:05:32.583Z,1612.00
2023-04-13T05:06:32.556Z,1692.00
2023-04-13T05:07:32.566Z,1756.00
2023-04-13T05:08:32.573Z,1820.00
2023-04-13T05:09:32.590Z,1912.00
2023-04-13T05:10:32.603Z,2072.00
2023-04-13T05:11:32.613Z,2300.00
2023-04-13T05:12:32.628Z,2560.00
2023-04-13T05:13:32.663Z,2816.00
2023-04-13T05:14:32.649Z,3076.00
2023-04-13T05:15:32.659Z,3284.00
2023-04-13T05:16:32.744Z,3460.00
2023-04-13T05:17:32.745Z,3600.00
2023-04-13T05:18:32.694Z,3728.00
2023-04-13T05:19:32.713Z,3860.00
2023-04-13T05:20:32.717Z,3992.00
2023-04-13T05:21:32.731Z,4080.00
2023-04-13T05:22:32.742Z,4116.00
2023-04-13T05:23:32.756Z,4116.00
2023-04-13T05:24:32.768Z,4100.00
2023-04-13T05:25:32.778Z,4104.00
2023-04-13T05:26:32.806Z,4172.00
2023-04-13T05:27:32.815Z,4316.00
2023-04-13T05:28:32.813Z,4532.00
2023-04-13T05:29:32.827Z,4788.00
2023-04-13T05:30:32.840Z,5072.00
2023-04-13T05:31:32.877Z,5276.00
2023-04-13T05:32:32.891Z,5344.00
2023-04-13T05:33:32.876Z,5268.00
2023-04-13T05:34:32.888Z,5128.00
2023-04-13T05:35:32.900Z,4988.00
2023-04-13T05:36:32.916Z,4836.00
2023-04-13T05:37:32.936Z,4672.00
2023-04-13T05:38:32.939Z,4484.00
2023-04-13T05:39:32.947Z,4276.00
2023-04-13T05:40:32.959Z,4052.00
2023-04-13T05:41:32.975Z,3856.00
2023-04-13T05:42:32.989Z,3700.00
2023-04-13T05:43:32.996Z,3580.00
2023-04-13T05:44:33.009Z,3500.00
2023-04-13T05:45:33.070Z,3444.00
2023-04-13T05:46:33.043Z,3404.00
2023-04-13T05:47:33.051Z,3388.00
2023-04-13T05:48:34.431Z,3400.00
2023-04-13T05:49:33.072Z,3456.00
2023-04-13T05:50:33.089Z,3580.00
2023-04-13T05:51:33.096Z,3772.00
2023-04-13T05:52:33.107Z,4008.00
2023-04-13T05:53:33.124Z,4320.00
2023-04-13T05:54:33.130Z,4688.00
2023-04-13T05:55:33.157Z,5040.00
2023-04-13T05:56:33.155Z,5444.00
2023-04-13T05:57:33.170Z,5884.00
2023-04-13T05:58:33.183Z,6228.00
2023-04-13T05:59:33.194Z,6392.00
2023-04-13T06:00:33.204Z,6512.00
2023-04-13T06:01:33.229Z,6548.00
2023-04-13T06:02:33.321Z,6520.00
2023-04-13T06:03:33.462Z,6492.00
2023-04-13T06:04:33.341Z,6572.00
2023-04-13T06:05:33.278Z,6764.00
2023-04-13T06:06:33.292Z,6996.00
2023-04-13T06:07:33.306Z,7176.00
2023-04-13T06:08:33.307Z,7356.00
2023-04-13T06:09:33.319Z,7488.00
2023-04-13T06:10:33.329Z,7556.00
2023-04-13T06:11:33.346Z,7492.00
2023-04-13T06:12:33.356Z,7400.00
2023-04-13T06:13:33.370Z,7336.00
2023-04-13T06:14:33.381Z,7296.00
2023-04-13T06:15:33.397Z,7360.00
2023-04-13T06:16:33.456Z,7472.00
2023-04-13T06:17:33.437Z,7560.00
2023-04-13T06:18:33.434Z,7640.00
2023-04-13T06:19:33.454Z,7712.00
2023-04-13T06:20:33.484Z,7728.00
2023-04-13T06:21:33.478Z,7720.00
2023-04-13T06:22:33.494Z,7708.00
2023-04-13T06:23:33.497Z,7688.00
2023-04-13T06:24:33.511Z,7692.00
2023-04-13T06:25:33.526Z,7700.00
2023-04-13T06:26:33.544Z,7696.00
2023-04-13T06:27:33.564Z,7664.00
2023-04-13T06:28:33.584Z,7632.00
2023-04-13T06:29:33.578Z,7592.00
2023-04-13T06:30:33.635Z,7572.00
2023-04-13T06:31:33.710Z,7596.00
2023-04-13T06:32:33.635Z,7632.00
2023-04-13T06:33:33.667Z,7680.00
2023-04-13T06:34:33.648Z,7756.00
2023-04-13T06:35:33.662Z,7868.00
2023-04-13T06:36:33.672Z,7996.00
2023-04-13T06:37:33.685Z,8128.00
2023-04-13T06:38:33.700Z,8260.00
2023-04-13T06:39:33.713Z,8400.00
2023-04-13T06:40:33.754Z,8540.00
2023-04-13T06:41:33.740Z,8688.00
2023-04-13T06:42:33.760Z,8844.00
2023-04-13T06:43:33.766Z,9020.00
2023-04-13T06:44:33.781Z,9228.00
2023-04-13T06:45:33.855Z,9416.00
2023-04-13T06:46:33.844Z,9556.00
2023-04-13T06:47:33.859Z,9644.00
2023-04-13T06:48:33.841Z,9688.00
2023-04-13T06:49:33.848Z,9720.00
2023-04-13T06:50:33.868Z,9788.00
2023-04-13T06:51:33.886Z,9876.00
2023-04-13T06:52:33.891Z,9972.00
2023-04-13T06:53:33.906Z,10036.00
2023-04-13T06:54:33.926Z,10044.00
2023-04-13T06:55:33.936Z,10064.00
2023-04-13T06:56:33.951Z,10108.00
2023-04-13T06:57:33.957Z,10228.00
2023-04-13T06:58:33.979Z,10384.00
2023-04-13T06:59:33.985Z,10552.00
2023-04-13T07:00:34.088Z,10676.00
2023-04-13T07:01:34.100Z,10744.00
2023-04-13T07:02:34.157Z,10780.00
2023-04-13T07:03:34.264Z,10776.00
2023-04-13T07:04:34.368Z,10736.00
2023-04-13T07:05:34.078Z,10680.00
2023-04-13T07:06:34.093Z,10600.00
2023-04-13T07:07:34.100Z,10528.00
2023-04-13T07:08:34.114Z,10424.00
2023-04-13T07:09:34.129Z,10312.00
2023-04-13T07:10:34.144Z,10268.00
2023-04-13T07:11:34.166Z,10264.00
2023-04-13T07:12:34.187Z,10268.00
2023-04-13T07:13:34.212Z,10364.00
2023-04-13T07:14:34.201Z,10548.00
2023-04-13T07:15:34.229Z,10692.00
2023-04-13T07:16:34.250Z,10708.00
2023-04-13T07:17:34.280Z,10584.00
2023-04-13T07:18:34.263Z,10492.00
2023-04-13T07:19:34.278Z,10480.00
2023-04-13T07:20:34.288Z,10564.00
2023-04-13T07:21:34.300Z,10704.00
2023-04-13T07:22:34.316Z,10840.00
2023-04-13T07:23:34.334Z,10964.00
2023-04-13T07:24:34.346Z,11140.00
2023-04-13T07:25:34.364Z,11392.00
2023-04-13T07:26:34.374Z,11680.00
2023-04-13T07:27:34.391Z,11924.00
2023-04-13T07:28:34.403Z,12180.00
2023-04-13T07:29:34.427Z,12388.00
2023-04-13T07:30:34.436Z,12540.00
2023-04-13T07:31:34.542Z,12708.00
2023-04-13T07:32:34.491Z,13004.00
2023-04-13T07:33:34.479Z,13384.00
2023-04-13T07:34:34.508Z,13800.00
2023-04-13T07:35:34.508Z,14168.00
2023-04-13T07:36:34.521Z,14524.00
2023-04-13T07:37:34.541Z,14884.00
2023-04-13T07:38:34.581Z,15340.00
2023-04-13T07:39:34.605Z,16116.00
2023-04-13T07:40:34.605Z,16360.00
2023-04-13T07:41:34.606Z,17216.00
2023-04-13T07:42:34.637Z,17120.00
2023-04-13T07:43:34.655Z,17024.00
2023-04-13T07:44:34.669Z,16588.00
2023-04-13T07:45:34.693Z,16564.00
2023-04-13T07:46:34.686Z,16748.00
2023-04-13T07:47:34.730Z,17152.00
2023-04-13T07:48:34.700Z,17088.00
2023-04-13T07:49:34.726Z,16244.00
2023-04-13T07:50:34.735Z,15928.00
2023-04-13T07:51:34.754Z,16072.00
2023-04-13T07:52:34.764Z,16652.00
2023-04-13T07:53:34.779Z,17408.00
2023-04-13T07:54:34.800Z,17728.00
2023-04-13T07:55:34.810Z,17568.00
2023-04-13T07:56:34.828Z,17568.00
2023-04-13T07:57:34.842Z,17536.00
2023-04-13T07:58:34.862Z,17664.00
2023-04-13T07:59:34.878Z,17984.00
2023-04-13T08:00:34.892Z,18464.00
2023-04-13T08:01:34.978Z,18880.00
2023-04-13T08:02:35.034Z,18944.00
2023-04-13T08:03:35.089Z,19072.00
2023-04-13T08:04:35.121Z,19264.00
2023-04-13T08:05:34.975Z,19616.00
2023-04-13T08:06:34.995Z,19872.00
2023-04-13T08:07:35.013Z,20128.00
2023-04-13T08:08:35.022Z,20224.00
2023-04-13T08:09:35.064Z,20288.00
2023-04-13T08:10:35.057Z,20384.00
2023-04-13T08:11:35.077Z,20192.00
2023-04-13T08:12:35.091Z,19744.00
2023-04-13T08:13:35.118Z,19456.00
2023-04-13T08:14:35.135Z,19104.00
2023-04-13T08:15:35.155Z,18656.00
2023-04-13T08:16:35.197Z,18208.00
2023-04-13T08:17:35.215Z,17824.00
2023-04-13T08:18:35.198Z,17760.00
2023-04-13T08:19:35.230Z,17600.00
2023-04-13T08:20:35.226Z,17632.00
2023-04-13T08:21:35.243Z,17856.00
2023-04-13T08:22:35.261Z,18272.00
2023-04-13T08:23:35.279Z,18848.00
2023-04-13T08:24:35.298Z,19520.00
2023-04-13T08:25:35.311Z,20192.00
2023-04-13T08:26:35.329Z,20800.00
2023-04-13T08:27:35.373Z,21184.00
2023-04-13T08:28:35.379Z,21408.00
2023-04-13T08:29:35.382Z,21152.00
2023-04-13T08:30:35.398Z,20736.00
2023-04-13T08:31:35.430Z,20544.00
2023-04-13T08:32:35.503Z,20480.00
2023-04-13T08:33:35.456Z,20288.00
2023-04-13T08:34:35.466Z,20224.00
2023-04-13T08:35:35.488Z,20160.00
2023-04-13T08:36:35.502Z,20256.00
2023-04-13T08:37:35.548Z,20672.00
2023-04-13T08:38:36.698Z,21312.00
2023-04-13T08:39:35.558Z,22080.00
2023-04-13T08:40:35.574Z,22496.00
2023-04-13T08:41:36.952Z,22592.00
2023-04-13T08:42:35.620Z,22432.00
2023-04-13T08:43:35.623Z,22208.00
2023-04-13T08:44:35.647Z,22016.00
2023-04-13T08:45:35.697Z,21792.00
2023-04-13T08:46:35.726Z,21536.00
2023-04-13T08:47:35.711Z,21216.00
2023-04-13T08:48:49.993Z,20672.00
2023-04-13T08:49:35.742Z,20000.00
2023-04-13T08:50:35.754Z,19392.00
2023-04-13T08:51:35.770Z,18816.00
2023-04-13T08:52:35.810Z,18240.00
2023-04-13T08:53:36.089Z,17728.00
2023-04-13T08:54:35.821Z,17376.00
2023-04-13T08:55:35.844Z,17088.00
2023-04-13T08:56:45.518Z,16896.00
2023-04-13T08:57:35.885Z,16468.00
2023-04-13T08:58:35.893Z,16136.00
2023-04-13T08:59:35.912Z,15972.00
2023-04-13T09:00:35.930Z,16212.00
2023-04-13T09:01:35.994Z,17120.00
2023-04-13T09:02:36.081Z,18432.00
2023-04-13T09:03:36.074Z,19936.00
2023-04-13T09:04:36.255Z,21280.00
2023-04-13T09:05:36.016Z,22208.00
2023-04-13T09:06:36.065Z,22816.00
2023-04-13T09:07:36.052Z,23424.00
2023-04-13T09:08:36.072Z,23872.00
2023-04-13T09:09:36.107Z,24160.00
2023-04-13T09:10:36.107Z,24288.00
2023-04-13T09:11:36.124Z,24160.00
2023-04-13T09:12:36.142Z,23968.00
2023-04-13T09:13:36.165Z,23488.00
2023-04-13T09:14:36.179Z,23008.00
2023-04-13T09:15:36.204Z,22208.00
2023-04-13T09:16:36.488Z,21056.00
2023-04-13T09:17:36.269Z,19936.00
2023-04-13T09:18:36.249Z,19328.00
2023-04-13T09:19:36.273Z,19008.00
2023-04-13T09:20:36.287Z,18208.00
2023-04-13T09:21:36.309Z,18080.00
2023-04-13T09:22:36.328Z,18144.00
2023-04-13T09:23:36.346Z,18592.00
2023-04-13T09:24:36.366Z,19104.00
2023-04-13T09:25:36.389Z,19808.00
2023-04-13T09:26:36.406Z,20640.00
2023-04-13T09:27:36.421Z,21408.00
2023-04-13T09:28:36.438Z,21856.00
2023-04-13T09:29:36.459Z,20576.00
2023-04-13T09:30:36.479Z,19872.00
2023-04-13T09:31:36.530Z,19584.00
2023-04-13T09:32:36.529Z,19776.00
2023-04-13T09:33:36.531Z,19808.00
2023-04-13T09:34:36.553Z,19360.00
2023-04-13T09:35:36.569Z,19680.00
2023-04-13T09:36:43.546Z,19648.00
2023-04-13T09:37:36.604Z,21248.00
2023-04-13T09:38:36.623Z,23872.00
2023-04-13T09:39:36.641Z,25312.00
2023-04-13T09:40:36.659Z,25440.00
2023-04-13T09:41:36.683Z,23360.00
2023-04-13T09:42:38.627Z,21760.00
2023-04-13T09:43:36.717Z,23104.00
2023-04-13T09:44:36.740Z,24288.00
2023-04-13T09:45:36.760Z,24544.00
2023-04-13T09:46:36.828Z,22176.00
2023-04-13T09:47:36.827Z,20576.00
2023-04-13T09:48:36.813Z,19648.00
2023-04-13T09:49:36.831Z,18752.00
2023-04-13T09:50:36.853Z,19456.00
2023-04-13T09:51:36.867Z,18592.00
2023-04-13T09:52:36.883Z,17824.00
2023-04-13T09:53:36.905Z,16072.00
2023-04-13T09:54:36.923Z,14612.00
2023-04-13T09:55:36.979Z,14936.00
2023-04-13T09:56:36.965Z,17568.00
2023-04-13T09:57:36.981Z,21472.00
2023-04-13T09:58:36.996Z,22624.00
2023-04-13T09:59:37.014Z,22720.00
2023-04-13T10:00:37.037Z,20928.00
2023-04-13T10:01:37.061Z,19680.00
2023-04-13T10:02:37.236Z,18592.00
2023-04-13T10:03:37.164Z,19040.00
2023-04-13T10:04:37.161Z,21024.00
2023-04-13T10:05:47.325Z,21856.00
2023-04-13T10:06:37.156Z,20672.00
2023-04-13T10:07:37.241Z,20768.00
2023-04-13T10:08:38.941Z,20256.00
2023-04-13T10:09:37.209Z,20704.00
2023-04-13T10:10:37.238Z,18784.00
2023-04-13T10:11:37.241Z,18944.00
2023-04-13T10:12:37.267Z,20096.00
2023-04-13T10:13:37.282Z,22656.00
2023-04-13T10:14:37.301Z,24416.00
2023-04-13T10:15:37.326Z,23264.00
2023-04-13T10:16:37.368Z,21888.00
2023-04-13T10:17:37.419Z,20288.00
2023-04-13T10:18:37.516Z,18880.00
2023-04-13T10:19:37.397Z,19744.00
2023-04-13T10:20:37.416Z,23904.00
2023-04-13T10:21:37.434Z,26592.00
2023-04-13T10:22:37.472Z,27552.00
2023-04-13T10:23:37.477Z,23616.00
2023-04-13T10:24:37.511Z,24768.00
2023-04-13T10:25:39.643Z,25344.00
2023-04-13T10:26:37.538Z,21984.00
2023-04-13T10:27:37.557Z,22048.00
2023-04-13T10:28:37.571Z,23168.00
2023-04-13T10:29:37.593Z,24768.00
2023-04-13T10:30:37.620Z,21216.00
2023-04-13T10:31:37.726Z,19680.00
2023-04-13T10:32:37.665Z,18080.00
2023-04-13T10:33:37.677Z,17312.00
2023-04-13T10:34:37.701Z,18240.00
2023-04-13T10:35:38.454Z,21440.00
2023-04-13T10:36:37.733Z,23264.00
2023-04-13T10:37:37.755Z,23104.00
2023-04-13T10:38:37.771Z,23168.00
2023-04-13T10:39:37.799Z,22304.00
2023-04-13T10:40:37.813Z,21632.00
2023-04-13T10:41:37.833Z,20544.00
2023-04-13T10:42:50.792Z,19488.00
2023-04-13T10:43:37.874Z,18976.00
2023-04-13T10:44:38.980Z,19936.00
2023-04-13T10:45:37.921Z,20960.00
2023-04-13T10:46:38.010Z,23104.00
2023-04-13T10:47:37.968Z,24192.00
2023-04-13T10:48:37.966Z,25056.00
2023-04-13T10:49:37.985Z,24992.00
2023-04-13T10:50:38.006Z,25408.00
2023-04-13T10:51:38.026Z,26688.00
2023-04-13T10:52:38.045Z,26304.00
2023-04-13T10:53:38.081Z,23840.00
2023-04-13T10:54:38.086Z,21888.00
2023-04-13T10:55:38.104Z,22176.00
2023-04-13T10:56:38.148Z,23136.00
2023-04-13T10:57:38.143Z,21280.00
2023-04-13T10:58:38.168Z,18272.00
2023-04-13T10:59:53.116Z,15784.00
2023-04-13T11:00:46.309Z,14848.00
2023-04-13T11:01:38.226Z,16220.00
2023-04-13T11:02:38.371Z,18048.00
2023-04-13T11:03:39.255Z,20160.00
2023-04-13T11:04:38.348Z,24800.00
2023-04-13T11:05:38.310Z,24640.00
2023-04-13T11:06:38.427Z,24864.00
2023-04-13T11:07:38.347Z,24064.00
2023-04-13T11:08:38.366Z,22304.00
2023-04-13T11:09:38.384Z,19648.00
2023-04-13T11:10:38.405Z,18208.00
2023-04-13T11:11:38.425Z,18368.00
2023-04-13T11:12:38.445Z,18016.00
2023-04-13T11:13:38.467Z,16948.00
2023-04-13T11:14:38.487Z,15592.00
2023-04-13T11:15:38.509Z,15700.00
2023-04-13T11:16:38.598Z,14744.00
2023-04-13T11:17:38.580Z,16208.00
2023-04-13T11:18:38.598Z,19072.00
2023-04-13T11:19:38.591Z,20928.00
2023-04-13T11:20:38.603Z,21664.00
2023-04-13T11:21:38.625Z,23040.00
2023-04-13T11:22:38.644Z,24800.00
2023-04-13T11:23:38.662Z,24928.00
2023-04-13T11:24:38.681Z,22208.00
2023-04-13T11:25:38.716Z,18944.00
2023-04-13T11:26:38.866Z,17104.00
2023-04-13T11:27:38.761Z,16192.00
2023-04-13T11:28:38.760Z,16600.00
2023-04-13T11:29:38.782Z,15656.00
2023-04-13T11:30:38.810Z,14792.00
2023-04-13T11:31:39.030Z,14248.00
2023-04-13T11:32:38.850Z,13992.00
2023-04-13T11:33:40.293Z,13856.00
2023-04-13T11:34:38.890Z,14488.00
2023-04-13T11:35:38.903Z,16344.00
2023-04-13T11:36:39.069Z,19648.00
2023-04-13T11:37:38.940Z,27776.00
2023-04-13T11:38:38.965Z,29152.00
2023-04-13T11:39:38.997Z,29600.00
2023-04-13T11:40:39.010Z,28000.00
2023-04-13T11:41:39.034Z,26400.00
2023-04-13T11:42:39.043Z,25888.00
2023-04-13T11:43:39.067Z,24768.00
2023-04-13T11:44:39.100Z,23744.00
2023-04-13T11:45:39.121Z,22016.00
2023-04-13T11:46:39.188Z,23488.00
2023-04-13T11:47:39.191Z,25952.00
2023-04-13T11:48:39.162Z,26496.00
2023-04-13T11:49:39.183Z,25056.00
2023-04-13T11:50:39.212Z,22752.00
2023-04-13T11:51:39.228Z,20640.00
2023-04-13T11:52:39.242Z,18720.00
2023-04-13T11:53:39.273Z,17344.00
2023-04-13T11:54:39.293Z,21824.00
2023-04-13T11:55:50.126Z,28960.00
2023-04-13T11:56:39.328Z,25600.00
2023-04-13T11:57:39.352Z,22720.00
2023-04-13T11:58:39.374Z,25664.00
2023-04-13T11:59:39.397Z,26944.00
2023-04-13T12:00:39.414Z,27968.00
2023-04-13T12:01:48.471Z,40640.00
2023-04-13T12:03:53.616Z,30976.00
2023-04-13T12:04:39.677Z,40448.00
2023-04-13T12:05:39.725Z,31776.00
2023-04-13T12:06:39.709Z,20288.00
2023-04-13T12:07:39.930Z,24992.00
2023-04-13T12:08:40.435Z,22528.00
2023-04-13T12:09:55.568Z,22464.00
2023-04-13T12:10:43.422Z,21600.00
2023-04-13T12:11:42.146Z,20576.00
2023-04-13T12:13:40.075Z,19872.00
2023-04-13T12:14:54.652Z,18528.00
2023-04-13T12:15:51.165Z,18464.00
2023-04-13T12:17:47.496Z,16604.00
2023-04-13T12:18:39.995Z,15088.00
2023-04-13T12:19:40.882Z,14088.00
2023-04-13T12:20:39.998Z,13784.00
2023-04-13T12:21:40.134Z,14216.00
2023-04-13T12:22:51.631Z,15064.00